createdAt,value
2022-07-25T00:01:50.727Z,3.90
2022-07-25T00:04:18.789Z,4.37
2022-07-25T00:06:46.730Z,4.22
2022-07-25T00:09:14.069Z,3.83
2022-07-25T00:11:42.577Z,4.05
2022-07-25T00:14:10.242Z,3.78
2022-07-25T00:16:37.817Z,3.95
2022-07-25T00:19:05.330Z,3.80
2022-07-25T00:21:32.818Z,3.75
2022-07-25T00:23:59.982Z,3.60
2022-07-25T00:26:27.447Z,3.58
2022-07-25T00:28:54.685Z,3.92
2022-07-25T00:31:21.868Z,4.12
2022-07-25T00:33:49.387Z,3.60
2022-07-25T00:36:16.444Z,3.62
2022-07-25T00:38:43.586Z,4.03
2022-07-25T00:41:11.131Z,3.70
2022-07-25T00:43:38.279Z,3.95
2022-07-25T00:46:05.716Z,3.92
2022-07-25T00:48:36.314Z,3.85
2022-07-25T00:51:03.569Z,3.78
2022-07-25T00:53:30.691Z,4.07
2022-07-25T00:55:58.145Z,3.62
2022-07-25T00:58:25.375Z,3.72
2022-07-25T01:00:52.542Z,3.78
2022-07-25T01:03:20.145Z,3.60
2022-07-25T01:05:53.090Z,3.67
2022-07-25T01:08:21.945Z,3.72
2022-07-25T01:10:49.471Z,3.97
2022-07-25T01:13:16.831Z,3.30
2022-07-25T01:15:44.366Z,3.58
2022-07-25T01:18:11.678Z,3.80
2022-07-25T01:20:39.201Z,3.70
2022-07-25T01:23:06.607Z,3.65
2022-07-25T01:25:34.021Z,3.20
2022-07-25T01:28:01.236Z,3.47
2022-07-25T01:30:28.642Z,3.78
2022-07-25T01:32:55.734Z,3.70
2022-07-25T01:35:22.857Z,3.50
2022-07-25T01:37:50.392Z,3.72
2022-07-25T01:40:17.528Z,3.37
2022-07-25T01:42:44.960Z,3.33
2022-07-25T01:45:12.820Z,3.45
2022-07-25T01:47:40.386Z,3.87
2022-07-25T01:50:08.129Z,3.55
2022-07-25T01:52:36.745Z,3.72
2022-07-25T01:55:04.148Z,3.45
2022-07-25T01:57:33.456Z,3.62
2022-07-25T02:00:08.749Z,3.95
2022-07-25T02:02:39.109Z,3.60
2022-07-25T02:05:07.791Z,3.50
2022-07-25T02:07:35.318Z,3.20
2022-07-25T02:10:03.697Z,4.05
2022-07-25T02:12:31.260Z,3.90
2022-07-25T02:14:58.432Z,6.03
2022-07-25T02:17:25.628Z,5.25
2022-07-25T02:19:53.083Z,5.25
2022-07-25T02:22:20.145Z,7.75
2022-07-25T02:24:47.268Z,5.18
2022-07-25T02:27:14.676Z,4.55
2022-07-25T02:29:41.795Z,3.42
2022-07-25T02:32:09.302Z,3.47
2022-07-25T02:34:36.785Z,3.40
2022-07-25T02:37:03.960Z,3.53
2022-07-25T02:39:31.135Z,3.40
2022-07-25T02:41:58.488Z,3.53
2022-07-25T02:44:25.574Z,3.60
2022-07-25T02:46:53.061Z,3.70
2022-07-25T02:49:20.595Z,3.58
2022-07-25T02:51:47.731Z,3.55
2022-07-25T02:54:15.202Z,3.10
2022-07-25T02:56:42.990Z,3.65
2022-07-25T02:59:10.088Z,3.28
2022-07-25T03:01:37.294Z,3.47
2022-07-25T03:04:05.396Z,3.40
2022-07-25T03:06:32.776Z,3.90
2022-07-25T03:08:59.869Z,3.50
2022-07-25T03:11:27.259Z,3.83
2022-07-25T03:13:54.965Z,3.65
2022-07-25T03:16:22.190Z,4.05
2022-07-25T03:18:49.569Z,3.47
2022-07-25T03:21:16.632Z,3.50
2022-07-25T03:23:44.681Z,3.65
2022-07-25T03:26:14.467Z,3.40
2022-07-25T03:28:41.787Z,3.60
2022-07-25T03:31:09.122Z,3.47
2022-07-25T03:33:36.598Z,3.70
2022-07-25T03:36:04.031Z,3.53
2022-07-25T03:38:31.413Z,3.15
2022-07-25T03:40:58.780Z,3.33
2022-07-25T03:43:25.863Z,3.47
2022-07-25T03:45:53.034Z,3.67
2022-07-25T03:48:20.455Z,3.60
2022-07-25T03:50:47.541Z,3.95
2022-07-25T03:53:14.809Z,3.65
2022-07-25T03:55:42.216Z,3.95
2022-07-25T03:58:09.402Z,3.65
2022-07-25T04:00:36.559Z,3.67
2022-07-25T04:03:04.579Z,3.70
2022-07-25T04:05:31.721Z,3.65
2022-07-25T04:07:59.020Z,4.05
2022-07-25T04:10:26.393Z,4.18
2022-07-25T04:12:53.438Z,3.70
2022-07-25T04:15:20.505Z,3.58
2022-07-25T04:17:47.880Z,3.70
2022-07-25T04:20:15.758Z,4.03
2022-07-25T04:22:46.761Z,4.55
2022-07-25T04:25:14.736Z,3.75
2022-07-25T04:27:41.860Z,3.78
2022-07-25T04:30:09.698Z,4.28
2022-07-25T04:32:37.166Z,5.12
2022-07-25T04:35:04.589Z,4.60
2022-07-25T04:37:31.781Z,5.12
2022-07-25T04:39:59.200Z,5.50
2022-07-25T04:42:26.360Z,4.82
2022-07-25T04:44:54.297Z,4.55
2022-07-25T04:47:21.801Z,4.68
2022-07-25T04:49:49.401Z,5.18
2022-07-25T04:52:16.539Z,5.20
2022-07-25T04:54:43.941Z,5.32
2022-07-25T04:57:11.065Z,4.90
2022-07-25T04:59:38.172Z,5.53
2022-07-25T05:02:06.437Z,6.53
2022-07-25T05:04:33.568Z,6.47
2022-07-25T05:07:02.422Z,6.47
2022-07-25T05:09:29.878Z,5.87
2022-07-25T05:11:56.997Z,5.50
2022-07-25T05:14:24.193Z,5.25
2022-07-25T05:16:51.614Z,4.90
2022-07-25T05:19:18.737Z,4.25
2022-07-25T05:21:45.769Z,3.87
2022-07-25T05:24:13.232Z,3.87
2022-07-25T05:26:40.434Z,3.37
2022-07-25T05:29:07.521Z,3.65
2022-07-25T05:31:34.931Z,3.25
2022-07-25T05:34:05.838Z,4.00
2022-07-25T05:36:33.260Z,3.08
2022-07-25T05:39:01.023Z,3.30
2022-07-25T05:41:28.134Z,3.72
2022-07-25T05:43:55.275Z,3.75
2022-07-25T05:46:22.794Z,3.78
2022-07-25T05:48:53.050Z,4.32
2022-07-25T05:51:20.180Z,4.12
2022-07-25T05:53:50.237Z,3.65
2022-07-25T05:56:17.418Z,3.95
2022-07-25T05:58:44.508Z,3.50
2022-07-25T06:01:12.716Z,4.37
2022-07-25T06:03:40.458Z,3.85
2022-07-25T06:06:11.258Z,3.53
2022-07-25T06:08:38.963Z,3.45
2022-07-25T06:11:08.297Z,3.47
2022-07-25T06:13:36.705Z,3.20
2022-07-25T06:16:04.023Z,3.72
2022-07-25T06:18:31.538Z,3.40
2022-07-25T06:20:58.811Z,3.40
2022-07-25T06:23:27.667Z,3.08
2022-07-25T06:25:55.351Z,3.28
2022-07-25T06:28:22.494Z,3.20
2022-07-25T06:30:49.568Z,3.40
2022-07-25T06:33:16.955Z,3.85
2022-07-25T06:35:44.100Z,3.85
2022-07-25T06:38:11.244Z,3.30
2022-07-25T06:40:38.669Z,3.65
2022-07-25T06:43:05.977Z,3.90
2022-07-25T06:45:33.169Z,3.40
2022-07-25T06:48:00.575Z,3.47
2022-07-25T06:50:27.693Z,3.87
2022-07-25T06:52:55.110Z,3.80
2022-07-25T06:55:22.503Z,3.10
2022-07-25T06:57:49.836Z,3.40
2022-07-25T07:00:17.280Z,4.68
2022-07-25T07:02:53.609Z,3.50
2022-07-25T07:05:21.019Z,3.05
2022-07-25T07:07:48.492Z,3.53
2022-07-25T07:10:16.602Z,3.17
2022-07-25T07:12:44.141Z,3.30
2022-07-25T07:15:12.602Z,3.00
2022-07-25T07:17:39.783Z,3.58
2022-07-25T07:20:08.034Z,3.20
2022-07-25T07:22:49.487Z,3.60
2022-07-25T07:25:18.320Z,3.12
2022-07-25T07:27:47.842Z,3.22
2022-07-25T07:30:15.138Z,2.67
2022-07-25T07:32:42.891Z,3.17
2022-07-25T07:35:12.322Z,2.75
2022-07-25T07:37:43.443Z,2.75
2022-07-25T07:40:17.854Z,3.08
2022-07-25T07:42:47.286Z,3.00
2022-07-25T07:45:20.575Z,3.22
2022-07-25T07:47:52.609Z,3.00
2022-07-25T07:50:22.580Z,2.70
2022-07-25T07:52:51.457Z,3.28
2022-07-25T07:55:37.713Z,2.95
2022-07-25T07:58:05.369Z,3.00
2022-07-25T08:00:32.592Z,2.90
2022-07-25T08:03:00.527Z,3.15
2022-07-25T08:05:30.566Z,2.97
2022-07-25T08:07:58.307Z,3.20
2022-07-25T08:10:28.246Z,3.28
2022-07-25T08:12:56.106Z,3.10
2022-07-25T08:15:23.580Z,2.92
2022-07-25T08:17:51.661Z,2.72
2022-07-25T08:20:37.339Z,3.15
2022-07-25T08:23:05.867Z,2.95
2022-07-25T08:25:33.148Z,3.72
2022-07-25T08:28:00.338Z,3.80
2022-07-25T08:30:27.979Z,3.55
2022-07-25T08:32:57.114Z,3.42
2022-07-25T08:35:25.807Z,3.55
2022-07-25T08:37:54.046Z,3.20
2022-07-25T08:40:23.345Z,3.47
2022-07-25T08:42:50.826Z,3.00
2022-07-25T08:45:19.693Z,3.50
2022-07-25T08:47:48.045Z,3.08
2022-07-25T08:50:17.407Z,3.60
2022-07-25T08:52:48.220Z,4.10
2022-07-25T08:55:20.261Z,3.60
2022-07-25T08:57:49.209Z,3.35
2022-07-25T09:00:18.626Z,3.78
2022-07-25T09:02:59.097Z,3.92
2022-07-25T09:05:28.492Z,3.60
2022-07-25T09:07:56.675Z,3.42
2022-07-25T09:10:28.690Z,3.45
2022-07-25T09:13:02.014Z,3.72
2022-07-25T09:15:34.758Z,3.90
2022-07-25T09:18:10.658Z,3.60
2022-07-25T09:20:41.163Z,3.72
2022-07-25T09:23:09.377Z,3.65
2022-07-25T09:25:36.755Z,3.80
2022-07-25T09:28:14.752Z,3.70
2022-07-25T09:30:55.022Z,4.15
2022-07-25T09:33:23.948Z,3.80
2022-07-25T09:35:52.201Z,3.72
2022-07-25T09:38:20.396Z,4.12
2022-07-25T09:41:03.011Z,3.70
2022-07-25T09:43:38.266Z,4.20
2022-07-25T09:46:07.042Z,3.87
2022-07-25T09:48:35.995Z,3.78
2022-07-25T09:51:03.842Z,3.60
2022-07-25T09:53:30.935Z,3.80
2022-07-25T09:55:59.547Z,3.50
2022-07-25T09:58:28.184Z,3.70
2022-07-25T10:01:03.778Z,3.30
2022-07-25T10:03:45.755Z,4.12
2022-07-25T10:06:31.313Z,3.47
2022-07-25T10:08:59.320Z,3.70
2022-07-25T10:11:27.641Z,3.08
2022-07-25T10:13:55.466Z,3.75
2022-07-25T10:16:24.771Z,3.62
2022-07-25T10:18:57.889Z,3.70
2022-07-25T10:21:28.291Z,3.67
2022-07-25T10:24:04.592Z,3.40
2022-07-25T10:26:33.715Z,3.45
2022-07-25T10:29:01.798Z,3.10
2022-07-25T10:31:32.045Z,3.37
2022-07-25T10:34:08.596Z,3.40
2022-07-25T10:36:54.188Z,3.45
2022-07-25T10:39:22.405Z,3.72
2022-07-25T10:41:52.318Z,3.40
2022-07-25T10:44:19.862Z,3.50
2022-07-25T10:46:49.021Z,3.08
2022-07-25T10:49:29.083Z,3.28
2022-07-25T10:52:00.893Z,3.10
2022-07-25T10:54:33.655Z,3.50
2022-07-25T10:57:01.239Z,3.60
2022-07-25T10:59:31.615Z,3.50
2022-07-25T11:01:59.487Z,3.45
2022-07-25T11:04:27.744Z,3.47
2022-07-25T11:06:54.890Z,3.15
2022-07-25T11:09:28.131Z,2.80
2022-07-25T11:11:57.760Z,3.53
2022-07-25T11:14:26.364Z,3.70
2022-07-25T11:16:56.224Z,3.15
2022-07-25T11:19:23.652Z,3.40
2022-07-25T11:21:55.913Z,3.00
2022-07-25T11:24:37.739Z,3.28
2022-07-25T11:27:09.748Z,3.05
2022-07-25T11:29:42.439Z,3.15
2022-07-25T11:32:11.830Z,2.90
2022-07-25T11:34:42.868Z,2.78
2022-07-25T11:37:11.697Z,2.72
2022-07-25T11:39:40.686Z,2.97
2022-07-25T11:42:10.325Z,3.00
2022-07-25T11:44:47.231Z,2.50
2022-07-25T11:47:30.895Z,2.80
2022-07-25T11:50:01.389Z,2.75
2022-07-25T11:52:31.579Z,2.70
2022-07-25T11:55:03.131Z,3.28
2022-07-25T11:57:32.135Z,3.15
2022-07-25T12:00:00.710Z,2.72
2022-07-25T12:02:33.160Z,2.80
2022-07-25T12:05:03.897Z,3.20
2022-07-25T12:07:54.881Z,3.00
2022-07-25T12:10:24.622Z,3.40
2022-07-25T12:12:56.481Z,3.28
2022-07-25T12:15:29.241Z,3.08
2022-07-25T12:17:58.188Z,3.15
2022-07-25T12:20:28.105Z,3.30
2022-07-25T12:22:58.287Z,2.65
2022-07-25T12:25:30.720Z,2.97
2022-07-25T12:27:59.054Z,2.78
2022-07-25T12:30:27.819Z,2.70
2022-07-25T12:32:56.267Z,2.87
2022-07-25T12:35:24.317Z,2.78
2022-07-25T12:37:52.414Z,3.10
2022-07-25T12:40:20.296Z,2.67
2022-07-25T12:42:47.796Z,2.75
2022-07-25T12:45:17.258Z,2.65
2022-07-25T12:47:45.522Z,2.78
2022-07-25T12:50:13.759Z,2.53
2022-07-25T12:52:42.288Z,4.03
2022-07-25T12:55:19.914Z,2.58
2022-07-25T12:57:47.487Z,2.85
2022-07-25T13:00:17.005Z,3.00
2022-07-25T13:02:44.442Z,2.65
2022-07-25T13:05:11.959Z,2.42
2022-07-25T13:07:39.635Z,2.65
2022-07-25T13:10:07.377Z,2.60
2022-07-25T13:12:34.769Z,2.58
2022-07-25T13:15:02.054Z,2.65
2022-07-25T13:17:29.149Z,2.83
2022-07-25T13:19:57.114Z,2.75
2022-07-25T13:22:24.867Z,2.85
2022-07-25T13:24:52.486Z,2.80
2022-07-25T13:27:21.302Z,2.60
2022-07-25T13:29:54.108Z,2.67
2022-07-25T13:34:50.092Z,3.03
2022-07-25T13:37:17.243Z,2.75
2022-07-25T13:39:44.805Z,2.42
2022-07-25T13:42:12.033Z,2.58
2022-07-25T13:44:39.099Z,2.58
2022-07-25T13:47:06.538Z,2.50
2022-07-25T13:49:33.677Z,2.45
2022-07-25T13:52:00.807Z,2.50
2022-07-25T13:54:28.279Z,2.80
2022-07-25T13:56:55.440Z,2.80
2022-07-25T13:59:22.566Z,2.45
2022-07-25T14:01:50.612Z,2.80
2022-07-25T14:04:18.168Z,2.70
2022-07-25T14:06:45.299Z,2.90
2022-07-25T14:09:12.367Z,3.00
2022-07-25T14:11:39.772Z,2.97
2022-07-25T14:14:06.883Z,2.60
2022-07-25T14:16:34.389Z,2.67
2022-07-25T14:19:02.410Z,3.10
2022-07-25T14:21:30.434Z,2.78
2022-07-25T14:23:57.583Z,2.35
2022-07-25T14:26:25.918Z,2.70
2022-07-25T14:28:53.102Z,2.62
2022-07-25T14:31:21.488Z,3.05
2022-07-25T14:33:48.989Z,2.30
2022-07-25T14:36:16.101Z,2.50
2022-07-25T14:38:43.706Z,2.75
2022-07-25T14:41:13.263Z,2.80
2022-07-25T14:43:41.635Z,2.50
2022-07-25T14:46:09.115Z,2.53
2022-07-25T14:48:37.952Z,2.83
2022-07-25T14:51:06.181Z,2.62
2022-07-25T14:53:34.199Z,2.60
2022-07-25T14:56:04.279Z,2.50
2022-07-25T14:58:31.893Z,3.05
2022-07-25T15:00:59.153Z,2.70
2022-07-25T15:03:26.748Z,2.37
2022-07-25T15:05:54.130Z,2.50
2022-07-25T15:08:21.227Z,2.58
2022-07-25T15:10:49.128Z,2.72
2022-07-25T15:13:32.349Z,2.55
2022-07-25T15:16:01.171Z,2.83
2022-07-25T15:18:28.636Z,2.58
2022-07-25T15:20:56.033Z,2.62
2022-07-25T15:23:25.191Z,2.50
2022-07-25T15:26:03.453Z,2.70
2022-07-25T15:28:37.546Z,2.67
2022-07-25T15:33:33.493Z,3.08
2022-07-25T15:36:00.849Z,2.90
2022-07-25T15:38:29.192Z,2.40
2022-07-25T15:40:57.193Z,2.53
2022-07-25T15:43:25.269Z,2.90
2022-07-25T15:45:52.838Z,2.45
2022-07-25T15:48:20.380Z,2.53
2022-07-25T15:50:49.698Z,4.05
2022-07-25T15:53:17.144Z,3.20
2022-07-25T15:55:44.558Z,3.22
2022-07-25T15:58:12.184Z,2.92
2022-07-25T16:00:40.283Z,3.20
2022-07-25T16:03:07.853Z,2.60
2022-07-25T16:05:35.903Z,2.70
2022-07-25T16:08:03.770Z,2.70
2022-07-25T16:10:32.615Z,2.83
2022-07-25T16:13:02.187Z,2.60
2022-07-25T16:15:29.361Z,3.00
2022-07-25T16:18:01.850Z,2.75
2022-07-25T16:20:33.971Z,2.43
2022-07-25T16:23:01.696Z,3.05
2022-07-25T16:25:29.495Z,2.80
2022-07-25T16:27:57.067Z,2.75
2022-07-25T16:30:25.139Z,2.75
2022-07-25T16:32:52.390Z,2.70
2022-07-25T16:35:19.954Z,3.00
2022-07-25T16:37:47.391Z,2.95
2022-07-25T16:40:15.503Z,3.00
2022-07-25T16:42:42.863Z,2.95
2022-07-25T16:45:10.880Z,2.90
2022-07-25T16:47:40.142Z,3.20
2022-07-25T16:50:07.517Z,3.08
2022-07-25T16:52:34.922Z,2.75
2022-07-25T16:55:02.209Z,2.75
2022-07-25T16:57:29.462Z,2.97
2022-07-25T16:59:57.092Z,2.72
2022-07-25T17:02:29.292Z,2.90
2022-07-25T17:04:57.347Z,2.90
2022-07-25T17:07:25.477Z,3.20
2022-07-25T17:09:53.005Z,2.70
2022-07-25T17:12:20.915Z,2.80
2022-07-25T17:14:48.012Z,2.72
2022-07-25T17:17:15.257Z,2.67
2022-07-25T17:19:42.768Z,3.03
2022-07-25T17:22:10.446Z,3.10
2022-07-25T17:24:38.775Z,3.08
2022-07-25T17:27:09.743Z,3.40
2022-07-25T17:29:36.903Z,2.97
2022-07-25T17:32:06.004Z,2.62
2022-07-25T17:34:33.663Z,3.33
2022-07-25T17:37:02.952Z,3.10
2022-07-25T17:39:30.652Z,2.92
2022-07-25T17:41:58.254Z,3.22
2022-07-25T17:44:25.588Z,3.47
2022-07-25T17:46:55.861Z,2.97
2022-07-25T17:49:23.398Z,3.08
2022-07-25T17:51:50.573Z,3.50
2022-07-25T17:54:17.754Z,3.58
2022-07-25T17:56:45.597Z,3.50
2022-07-25T17:59:13.081Z,3.30
2022-07-25T18:01:40.300Z,3.30
2022-07-25T18:04:08.429Z,3.35
2022-07-25T18:06:35.861Z,3.03
2022-07-25T18:09:03.205Z,3.78
2022-07-25T18:11:30.778Z,3.67
2022-07-25T18:13:59.465Z,3.72
2022-07-25T18:16:26.758Z,3.20
2022-07-25T18:18:54.352Z,3.92
2022-07-25T18:21:21.498Z,3.30
2022-07-25T18:23:48.567Z,3.15
2022-07-25T18:26:16.447Z,3.20
2022-07-25T18:28:44.274Z,3.70
2022-07-25T18:31:11.603Z,3.67
2022-07-25T18:33:39.167Z,3.05
2022-07-25T18:36:07.744Z,3.28
2022-07-25T18:38:36.018Z,3.40
2022-07-25T18:41:28.161Z,3.70
2022-07-25T18:43:52.917Z,3.50
2022-07-25T18:46:20.417Z,3.65
2022-07-25T18:48:47.832Z,3.60
2022-07-25T18:51:15.138Z,4.03
2022-07-25T18:53:47.324Z,4.00
2022-07-25T18:56:15.947Z,3.50
2022-07-25T18:58:44.467Z,3.37
2022-07-25T19:01:12.826Z,3.53
2022-07-25T19:03:40.775Z,3.42
2022-07-25T19:06:09.260Z,3.70
2022-07-25T19:08:36.683Z,4.12
2022-07-25T19:11:03.846Z,3.50
2022-07-25T19:16:18.854Z,3.60
2022-07-25T19:18:46.757Z,4.07
2022-07-25T19:21:14.004Z,3.70
2022-07-25T19:23:41.143Z,3.70
2022-07-25T19:26:08.629Z,3.90
2022-07-25T19:28:36.457Z,3.85
2022-07-25T19:31:03.814Z,3.90
2022-07-25T19:33:34.661Z,4.00
2022-07-25T19:36:05.692Z,4.05
2022-07-25T19:38:33.110Z,3.85
2022-07-25T19:41:00.848Z,3.90
2022-07-25T19:43:27.999Z,3.95
2022-07-25T19:45:55.431Z,3.87
2022-07-25T19:48:25.322Z,4.03
2022-07-25T19:50:52.592Z,4.25
2022-07-25T19:53:22.125Z,4.15
2022-07-25T19:55:52.569Z,4.50
2022-07-25T19:58:20.023Z,3.95
2022-07-25T20:00:47.284Z,3.97
2022-07-25T20:03:15.633Z,3.90
2022-07-25T20:05:42.911Z,3.87
2022-07-25T20:08:09.982Z,5.95
2022-07-25T20:10:37.389Z,3.78
2022-07-25T20:13:04.827Z,4.00
2022-07-25T20:15:32.195Z,3.90
2022-07-25T20:17:59.623Z,3.58
2022-07-25T20:20:26.914Z,3.75
2022-07-25T20:22:54.726Z,3.80
2022-07-25T20:25:22.275Z,3.75
2022-07-25T20:27:49.876Z,4.12
2022-07-25T20:30:17.928Z,3.83
2022-07-25T20:32:45.307Z,3.53
2022-07-25T20:35:12.491Z,3.75
2022-07-25T20:37:39.728Z,3.70
2022-07-25T20:40:08.618Z,3.90
2022-07-25T20:42:36.885Z,4.00
2022-07-25T20:45:05.871Z,3.95
2022-07-25T20:47:34.136Z,5.30
2022-07-25T20:50:01.499Z,4.82
2022-07-25T20:52:30.269Z,5.80
2022-07-25T20:54:57.776Z,4.50
2022-07-25T20:57:25.031Z,3.47
2022-07-25T20:59:52.119Z,3.87
2022-07-25T21:02:19.770Z,3.60
2022-07-25T21:04:48.558Z,3.55
2022-07-25T21:07:16.576Z,3.95
2022-07-25T21:09:44.697Z,4.30
2022-07-25T21:12:11.794Z,4.12
2022-07-25T21:14:39.009Z,3.50
2022-07-25T21:17:06.572Z,3.95
2022-07-25T21:19:33.787Z,3.70
2022-07-25T21:22:01.951Z,3.78
2022-07-25T21:24:29.423Z,4.00
2022-07-25T21:26:56.699Z,3.70
2022-07-25T21:29:23.766Z,3.37
2022-07-25T21:31:51.370Z,3.20
2022-07-25T21:34:21.641Z,3.50
2022-07-25T21:36:48.726Z,4.00
2022-07-25T21:39:16.381Z,3.50
2022-07-25T21:41:44.875Z,3.33
2022-07-25T21:44:13.824Z,3.33
2022-07-25T21:46:41.223Z,3.62
2022-07-25T21:49:40.757Z,3.12
2022-07-25T21:52:09.249Z,3.45
2022-07-25T21:54:42.197Z,3.30
2022-07-25T21:57:12.997Z,3.42
2022-07-25T21:59:44.861Z,3.25
2022-07-25T22:02:12.549Z,3.15
2022-07-25T22:04:39.959Z,3.20
2022-07-25T22:07:07.047Z,3.47
2022-07-25T22:09:34.315Z,3.37
2022-07-25T22:12:02.056Z,2.95
2022-07-25T22:14:29.204Z,2.78
2022-07-25T22:16:56.422Z,2.95
2022-07-25T22:19:23.973Z,3.12
2022-07-25T22:21:51.260Z,3.20
2022-07-25T22:24:18.373Z,3.20
2022-07-25T22:26:45.849Z,3.35
2022-07-25T22:29:13.011Z,2.85
2022-07-25T22:31:40.491Z,2.85
2022-07-25T22:34:08.922Z,2.70
2022-07-25T22:36:36.546Z,3.25
2022-07-25T22:39:04.034Z,2.65
2022-07-25T22:41:31.674Z,2.92
2022-07-25T22:44:00.074Z,2.70
2022-07-25T22:46:28.961Z,3.35
2022-07-25T22:48:57.554Z,3.15
2022-07-25T22:51:25.554Z,2.97
2022-07-25T22:53:52.861Z,2.97
2022-07-25T22:56:20.791Z,2.83
2022-07-25T22:58:49.035Z,2.83
2022-07-25T23:01:17.836Z,2.92
2022-07-25T23:03:45.773Z,2.83
2022-07-25T23:06:13.209Z,2.95
2022-07-25T23:08:40.347Z,3.30
2022-07-25T23:11:08.220Z,2.80
2022-07-25T23:13:36.260Z,3.35
2022-07-25T23:16:04.644Z,3.17
2022-07-25T23:18:32.204Z,2.80
2022-07-25T23:20:59.753Z,2.92
2022-07-25T23:23:26.878Z,2.78
2022-07-25T23:25:54.291Z,2.80
2022-07-25T23:28:21.375Z,3.05
2022-07-25T23:30:48.492Z,2.78
2022-07-25T23:33:15.901Z,3.05
2022-07-25T23:35:43.565Z,3.03
2022-07-25T23:38:10.946Z,3.25
2022-07-25T23:40:38.321Z,2.75
2022-07-25T23:43:05.445Z,3.00
2022-07-25T23:45:32.768Z,3.55
2022-07-25T23:48:00.126Z,3.00
2022-07-25T23:50:27.190Z,3.10
2022-07-25T23:52:54.331Z,3.20
2022-07-25T23:55:21.746Z,2.72
2022-07-25T23:57:48.887Z,3.00
